createdAt,value
2023-02-08T00:00:48.645Z,25.67
2023-02-08T00:03:15.874Z,25.70
2023-02-08T00:05:42.519Z,27.13
2023-02-08T00:08:09.297Z,30.13
2023-02-08T00:10:35.937Z,26.17
2023-02-08T00:13:02.963Z,26.10
2023-02-08T00:15:29.644Z,25.63
2023-02-08T00:17:56.380Z,28.35
2023-02-08T00:20:23.055Z,26.50
2023-02-08T00:22:50.233Z,23.98
2023-02-08T00:25:18.216Z,30.05
2023-02-08T00:27:44.784Z,24.45
2023-02-08T00:30:11.885Z,24.77
2023-02-08T00:32:38.493Z,24.88
2023-02-08T00:35:05.337Z,23.10
2023-02-08T00:37:31.995Z,26.00
2023-02-08T00:40:01.394Z,25.27
2023-02-08T00:42:28.472Z,24.33
2023-02-08T00:44:55.033Z,26.90
2023-02-08T00:47:21.862Z,27.95
2023-02-08T00:49:48.495Z,23.30
2023-02-08T00:52:15.136Z,26.15
2023-02-08T00:54:42.650Z,25.90
2023-02-08T00:57:09.369Z,24.52
2023-02-08T00:59:36.020Z,23.47
2023-02-08T01:02:02.681Z,24.02
2023-02-08T01:04:29.342Z,26.92
2023-02-08T01:06:56.070Z,23.42
2023-02-08T01:09:22.755Z,23.83
2023-02-08T01:11:49.535Z,22.15
2023-02-08T01:14:16.298Z,23.73
2023-02-08T01:16:42.913Z,22.33
2023-02-08T01:19:09.548Z,24.17
2023-02-08T01:21:39.560Z,21.98
2023-02-08T01:24:07.220Z,21.48
2023-02-08T01:26:34.294Z,22.07
2023-02-08T01:29:01.228Z,19.60
2023-02-08T01:31:46.384Z,21.45
2023-02-08T01:34:13.087Z,25.13
2023-02-08T01:36:40.111Z,21.63
2023-02-08T01:39:08.049Z,17.63
2023-02-08T01:41:39.121Z,20.35
2023-02-08T01:44:27.829Z,25.45
2023-02-08T01:46:54.806Z,22.33
2023-02-08T01:49:29.715Z,22.65
2023-02-08T01:52:16.767Z,22.30
2023-02-08T01:55:13.426Z,19.80
2023-02-08T01:57:40.765Z,22.00
2023-02-08T02:00:12.669Z,22.75
2023-02-08T02:02:40.660Z,25.20
2023-02-08T02:05:08.187Z,22.33
2023-02-08T02:07:34.852Z,25.10
2023-02-08T02:10:27.364Z,25.85
2023-02-08T02:12:56.752Z,21.38
2023-02-08T02:15:23.372Z,20.98
2023-02-08T02:17:50.160Z,20.00
2023-02-08T02:20:19.840Z,21.05
2023-02-08T02:23:05.197Z,21.73
2023-02-08T02:25:47.120Z,21.77
2023-02-08T02:28:42.348Z,19.08
2023-02-08T02:31:15.072Z,20.05
2023-02-08T02:34:05.513Z,22.80
2023-02-08T02:37:03.563Z,18.73
2023-02-08T02:39:41.183Z,19.88
2023-02-08T02:42:41.733Z,19.83
2023-02-08T02:45:33.882Z,21.25
2023-02-08T02:48:12.223Z,22.75
2023-02-08T02:51:05.793Z,18.55
2023-02-08T02:53:41.896Z,22.77
2023-02-08T02:56:31.062Z,19.77
2023-02-08T02:59:04.079Z,17.85
2023-02-08T03:01:31.644Z,18.63
2023-02-08T03:03:59.082Z,19.92
2023-02-08T03:06:38.297Z,16.97
2023-02-08T03:09:15.808Z,20.20
2023-02-08T03:11:55.040Z,19.95
2023-02-08T03:14:35.914Z,17.90
2023-02-08T03:17:35.064Z,18.07
2023-02-08T03:20:20.603Z,20.25
2023-02-08T03:23:15.300Z,17.13
2023-02-08T03:25:59.580Z,16.85
2023-02-08T03:28:42.731Z,22.80
2023-02-08T03:31:47.262Z,18.88
2023-02-08T03:34:29.945Z,18.17
2023-02-08T03:37:06.341Z,20.25
2023-02-08T03:39:37.074Z,20.93
2023-02-08T03:42:12.312Z,23.67
2023-02-08T03:44:51.290Z,19.23
2023-02-08T03:47:22.700Z,18.88
2023-02-08T03:49:52.192Z,18.23
2023-02-08T03:52:19.641Z,22.63
2023-02-08T03:54:54.475Z,19.08
2023-02-08T03:57:35.137Z,20.83
2023-02-08T04:00:06.817Z,20.80
2023-02-08T04:02:37.279Z,20.08
2023-02-08T04:05:05.685Z,22.67
2023-02-08T04:07:32.378Z,19.13
2023-02-08T04:09:58.990Z,19.10
2023-02-08T04:12:25.637Z,19.38
2023-02-08T04:14:52.243Z,18.92
2023-02-08T04:17:18.946Z,20.88
2023-02-08T04:19:45.776Z,23.37
2023-02-08T04:22:12.354Z,20.20
2023-02-08T04:24:39.508Z,18.20
2023-02-08T04:27:06.243Z,19.25
2023-02-08T04:29:32.942Z,22.65
2023-02-08T04:32:00.205Z,18.10
2023-02-08T04:34:27.228Z,19.05
2023-02-08T04:36:53.864Z,22.30
2023-02-08T04:39:20.452Z,17.25
2023-02-08T04:41:47.057Z,19.95
2023-02-08T04:44:14.759Z,22.90
2023-02-08T04:46:41.440Z,19.83
2023-02-08T04:49:08.262Z,17.85
2023-02-08T04:51:34.912Z,18.92
2023-02-08T04:54:01.562Z,19.27
2023-02-08T04:56:28.151Z,17.53
2023-02-08T04:58:54.788Z,18.23
2023-02-08T05:01:21.519Z,17.23
2023-02-08T05:03:48.706Z,18.05
2023-02-08T05:06:15.344Z,14.85
2023-02-08T05:08:42.055Z,19.55
2023-02-08T05:11:08.709Z,18.20
2023-02-08T05:13:35.378Z,21.87
2023-02-08T05:16:02.161Z,20.20
2023-02-08T05:18:28.925Z,19.13
2023-02-08T05:20:57.557Z,18.90
2023-02-08T05:23:24.717Z,18.53
2023-02-08T05:25:51.480Z,20.73
2023-02-08T05:28:18.369Z,16.67
2023-02-08T05:30:46.394Z,17.52
2023-02-08T05:33:13.726Z,17.42
2023-02-08T05:35:40.369Z,19.08
2023-02-08T05:38:07.260Z,18.95
2023-02-08T05:40:34.601Z,17.30
2023-02-08T05:43:01.203Z,23.67
2023-02-08T05:45:28.124Z,19.40
2023-02-08T05:47:54.873Z,18.17
2023-02-08T05:50:21.625Z,19.23
2023-02-08T05:52:48.235Z,17.65
2023-02-08T05:55:14.890Z,18.20
2023-02-08T05:57:41.503Z,20.00
2023-02-08T06:00:08.801Z,18.58
2023-02-08T06:02:35.418Z,19.40
2023-02-08T06:05:02.074Z,18.70
2023-02-08T06:07:29.735Z,18.58
2023-02-08T06:09:56.309Z,24.25
2023-02-08T06:12:22.868Z,19.87
2023-02-08T06:14:49.910Z,19.98
2023-02-08T06:17:16.591Z,17.92
2023-02-08T06:19:43.169Z,19.48
2023-02-08T06:22:09.808Z,19.13
2023-02-08T06:24:36.382Z,21.52
2023-02-08T06:27:02.984Z,18.45
2023-02-08T06:29:29.613Z,19.48
2023-02-08T06:31:56.385Z,17.83
2023-02-08T06:34:23.657Z,19.10
2023-02-08T06:36:50.912Z,20.88
2023-02-08T06:39:17.575Z,20.60
2023-02-08T06:41:44.164Z,19.50
2023-02-08T06:44:10.787Z,21.52
2023-02-08T06:46:37.417Z,20.08
2023-02-08T06:49:04.057Z,19.05
2023-02-08T06:51:30.624Z,20.35
2023-02-08T06:53:57.305Z,21.35
2023-02-08T06:56:23.935Z,21.57
2023-02-08T06:58:50.582Z,22.98
2023-02-08T07:01:17.233Z,22.73
2023-02-08T07:03:44.065Z,20.38
2023-02-08T07:06:15.359Z,21.30
2023-02-08T07:08:42.333Z,17.50
2023-02-08T07:11:10.592Z,17.77
2023-02-08T07:13:37.932Z,21.53
2023-02-08T07:16:05.849Z,19.48
2023-02-08T07:18:32.980Z,23.27
2023-02-08T07:20:59.618Z,20.20
2023-02-08T07:23:26.312Z,21.30
2023-02-08T07:26:05.199Z,21.42
2023-02-08T07:28:31.969Z,23.13
2023-02-08T07:30:58.684Z,24.10
2023-02-08T07:33:26.255Z,23.33
2023-02-08T07:35:52.963Z,21.70
2023-02-08T07:38:20.811Z,21.33
2023-02-08T07:40:47.776Z,23.38
2023-02-08T07:43:14.380Z,23.20
2023-02-08T07:45:41.424Z,24.02
2023-02-08T07:48:08.100Z,19.30
2023-02-08T07:50:34.777Z,24.92
2023-02-08T07:53:01.419Z,22.70
2023-02-08T07:55:28.065Z,23.23
2023-02-08T07:57:56.306Z,20.52
2023-02-08T08:00:23.554Z,22.45
2023-02-08T08:02:52.890Z,23.08
2023-02-08T08:05:19.712Z,19.35
2023-02-08T08:07:46.349Z,21.77
2023-02-08T08:10:12.932Z,23.30
2023-02-08T08:12:39.622Z,25.70
2023-02-08T08:15:06.983Z,19.85
2023-02-08T08:17:33.586Z,17.98
2023-02-08T08:20:00.210Z,20.65
2023-02-08T08:22:26.824Z,22.05
2023-02-08T08:24:53.750Z,21.02
2023-02-08T08:27:21.721Z,21.88
2023-02-08T08:29:48.407Z,16.93
2023-02-08T08:32:15.061Z,24.17
2023-02-08T08:34:41.808Z,20.55
2023-02-08T08:37:09.747Z,22.52
2023-02-08T08:39:37.165Z,21.53
2023-02-08T08:42:04.198Z,19.25
2023-02-08T08:44:31.172Z,22.92
2023-02-08T08:46:59.095Z,23.00
2023-02-08T08:49:27.239Z,22.83
2023-02-08T08:51:54.606Z,18.67
2023-02-08T08:54:22.237Z,21.73
2023-02-08T08:56:48.884Z,20.20
2023-02-08T08:59:15.576Z,20.40
2023-02-08T09:01:42.746Z,24.70
2023-02-08T09:04:10.778Z,18.50
2023-02-08T09:06:37.912Z,19.65
2023-02-08T09:09:05.035Z,19.58
2023-02-08T09:11:33.206Z,19.13
2023-02-08T09:14:04.406Z,19.52
2023-02-08T09:16:31.963Z,19.13
2023-02-08T09:19:06.374Z,20.40
2023-02-08T09:21:33.549Z,18.17
2023-02-08T09:24:04.001Z,19.80
2023-02-08T09:26:30.816Z,21.10
2023-02-08T09:28:57.426Z,21.50
2023-02-08T09:31:25.705Z,21.58
2023-02-08T09:33:55.157Z,16.13
2023-02-08T09:36:23.781Z,18.52
2023-02-08T09:38:54.496Z,20.10
2023-02-08T09:41:24.106Z,18.70
2023-02-08T09:44:32.439Z,20.20
2023-02-08T09:47:05.766Z,19.30
2023-02-08T09:49:56.013Z,16.50
2023-02-08T09:52:35.012Z,15.63
2023-02-08T09:55:10.722Z,16.85
2023-02-08T09:57:38.715Z,14.27
2023-02-08T10:00:13.091Z,14.40
2023-02-08T10:02:43.092Z,15.77
2023-02-08T10:05:20.947Z,15.77
2023-02-08T10:07:48.167Z,18.45
2023-02-08T10:10:24.189Z,15.20
2023-02-08T10:12:50.904Z,14.17
2023-02-08T10:15:29.590Z,16.20
2023-02-08T10:18:14.833Z,17.13
2023-02-08T10:21:08.193Z,16.80
2023-02-08T10:23:47.713Z,15.15
2023-02-08T10:26:29.402Z,15.97
2023-02-08T10:29:07.445Z,12.38
2023-02-08T10:32:05.941Z,17.73
2023-02-08T10:34:52.736Z,14.85
2023-02-08T10:37:24.081Z,14.80
2023-02-08T10:39:51.517Z,15.77
2023-02-08T10:42:22.229Z,14.25
2023-02-08T10:45:00.777Z,17.27
2023-02-08T10:47:33.879Z,12.90
2023-02-08T10:50:19.101Z,15.18
2023-02-08T10:52:45.787Z,14.83
2023-02-08T10:55:19.399Z,16.17
2023-02-08T10:57:53.932Z,13.30
2023-02-08T11:00:25.172Z,14.32
2023-02-08T11:02:53.254Z,14.68
2023-02-08T11:05:20.975Z,13.43
2023-02-08T11:07:48.005Z,13.23
2023-02-08T11:10:20.123Z,15.55
2023-02-08T11:12:58.967Z,14.77
2023-02-08T11:15:53.507Z,15.65
2023-02-08T11:18:27.445Z,12.83
2023-02-08T11:20:58.475Z,15.57
2023-02-08T11:23:39.582Z,19.05
2023-02-08T11:26:15.640Z,13.80
2023-02-08T11:28:42.802Z,12.27
2023-02-08T11:31:18.689Z,11.03
2023-02-08T11:34:06.145Z,15.15
2023-02-08T11:36:35.064Z,11.32
2023-02-08T11:39:15.360Z,12.68
2023-02-08T11:41:51.216Z,11.55
2023-02-08T11:44:25.840Z,10.93
2023-02-08T11:46:53.501Z,14.32
2023-02-08T11:49:23.954Z,12.20
2023-02-08T11:51:52.522Z,11.02
2023-02-08T11:54:41.750Z,11.05
2023-02-08T11:57:19.194Z,9.87
2023-02-08T11:59:47.606Z,12.27
2023-02-08T12:02:28.627Z,10.27
2023-02-08T12:04:56.427Z,10.20
2023-02-08T12:07:26.088Z,9.95
2023-02-08T12:10:17.549Z,10.73
2023-02-08T12:12:57.264Z,9.30
2023-02-08T12:15:59.164Z,10.57
2023-02-08T12:18:28.874Z,11.45
2023-02-08T12:21:05.522Z,10.25
2023-02-08T12:23:37.887Z,8.90
2023-02-08T12:26:25.027Z,12.13
2023-02-08T12:29:13.652Z,9.40
2023-02-08T12:32:06.560Z,8.85
2023-02-08T12:34:42.065Z,9.65
2023-02-08T12:38:05.147Z,8.90
2023-02-08T12:41:04.382Z,9.38
2023-02-08T12:44:08.489Z,12.77
2023-02-08T12:46:58.269Z,9.70
2023-02-08T12:49:52.016Z,8.68
2023-02-08T12:52:30.887Z,8.07
2023-02-08T12:55:02.934Z,10.35
2023-02-08T12:57:32.045Z,10.50
2023-02-08T13:00:34.065Z,9.20
2023-02-08T13:03:19.377Z,14.48
2023-02-08T13:06:01.678Z,9.90
2023-02-08T13:08:28.917Z,10.30
2023-02-08T13:11:10.840Z,12.02
2023-02-08T13:13:48.020Z,7.68
2023-02-08T13:16:21.240Z,10.68
2023-02-08T13:19:02.312Z,13.00
2023-02-08T13:21:37.924Z,11.50
2023-02-08T13:24:10.471Z,9.75
2023-02-08T13:26:40.157Z,10.30
2023-02-08T13:29:15.345Z,10.05
2023-02-08T13:31:45.039Z,9.60
2023-02-08T13:34:35.358Z,8.07
2023-02-08T13:37:16.582Z,9.20
2023-02-08T13:39:47.929Z,10.55
2023-02-08T13:42:37.225Z,9.20
2023-02-08T13:45:06.360Z,13.87
2023-02-08T13:47:51.866Z,8.70
2023-02-08T13:50:46.389Z,8.02
2023-02-08T13:53:14.897Z,9.45
2023-02-08T13:55:44.192Z,9.18
2023-02-08T13:58:13.714Z,9.37
2023-02-08T14:00:55.085Z,10.23
2023-02-08T14:03:27.403Z,9.52
2023-02-08T14:06:01.545Z,8.43
2023-02-08T14:08:40.052Z,8.75
2023-02-08T14:11:06.599Z,8.87
2023-02-08T14:13:39.810Z,10.68
2023-02-08T14:16:38.491Z,12.80
2023-02-08T14:19:18.085Z,8.38
2023-02-08T14:21:49.480Z,8.75
2023-02-08T14:24:28.637Z,9.53
2023-02-08T14:27:09.740Z,10.68
2023-02-08T14:29:37.456Z,10.98
2023-02-08T14:32:05.113Z,12.05
2023-02-08T14:34:35.696Z,10.00
2023-02-08T14:37:11.511Z,11.47
2023-02-08T14:39:38.236Z,10.23
2023-02-08T14:42:08.823Z,10.73
2023-02-08T14:44:38.625Z,9.55
2023-02-08T14:47:14.788Z,8.93
2023-02-08T14:49:45.551Z,11.90
2023-02-08T14:52:25.982Z,10.40
2023-02-08T14:55:30.695Z,8.15
2023-02-08T14:58:00.860Z,7.00
2023-02-08T15:00:33.135Z,7.43
2023-02-08T15:03:01.459Z,7.70
2023-02-08T15:05:38.913Z,10.40
2023-02-08T15:08:05.569Z,7.75
2023-02-08T15:10:35.041Z,7.85
2023-02-08T15:13:06.697Z,7.60
2023-02-08T15:15:42.744Z,7.70
2023-02-08T15:18:21.716Z,7.72
2023-02-08T15:20:58.525Z,7.55
2023-02-08T15:23:25.317Z,7.28
2023-02-08T15:25:59.207Z,7.82
2023-02-08T15:28:29.350Z,8.13
2023-02-08T15:31:06.333Z,7.95
2023-02-08T15:33:33.729Z,7.05
2023-02-08T15:36:07.620Z,6.38
2023-02-08T15:38:38.423Z,6.95
2023-02-08T15:41:07.045Z,6.43
2023-02-08T15:43:34.825Z,8.75
2023-02-08T15:46:04.680Z,6.28
2023-02-08T15:48:32.377Z,5.78
2023-02-08T15:51:00.888Z,7.85
2023-02-08T15:53:28.115Z,6.03
2023-02-08T15:55:58.800Z,8.77
2023-02-08T15:58:35.567Z,10.23
2023-02-08T16:01:05.191Z,6.60
2023-02-08T16:03:33.068Z,6.22
2023-02-08T16:06:05.889Z,9.93
2023-02-08T16:08:39.738Z,5.43
2023-02-08T16:11:19.925Z,6.80
2023-02-08T16:13:49.286Z,7.18
2023-02-08T16:16:26.537Z,6.85
2023-02-08T16:19:01.990Z,7.70
2023-02-08T16:21:44.086Z,6.50
2023-02-08T16:24:13.653Z,8.00
2023-02-08T16:26:42.016Z,7.43
2023-02-08T16:29:23.536Z,6.65
2023-02-08T16:32:16.906Z,7.83
2023-02-08T16:34:43.830Z,8.25
2023-02-08T16:37:26.976Z,8.70
2023-02-08T16:39:57.116Z,9.30
2023-02-08T16:42:42.583Z,6.72
2023-02-08T16:45:09.430Z,7.63
2023-02-08T16:47:42.050Z,8.13
2023-02-08T16:50:12.303Z,7.00
2023-02-08T16:52:39.405Z,7.60
2023-02-08T16:55:07.569Z,9.95
2023-02-08T16:57:46.004Z,8.13
2023-02-08T17:00:24.178Z,8.68
2023-02-08T17:02:51.568Z,6.55
2023-02-08T17:05:20.742Z,6.97
2023-02-08T17:07:48.737Z,7.47
2023-02-08T17:10:23.786Z,10.80
2023-02-08T17:12:50.510Z,7.90
2023-02-08T17:15:17.310Z,7.80
2023-02-08T17:17:44.021Z,6.60
2023-02-08T17:20:24.707Z,10.02
2023-02-08T17:22:52.675Z,7.97
2023-02-08T17:25:20.184Z,6.63
2023-02-08T17:27:54.541Z,9.43
2023-02-08T17:30:27.333Z,7.10
2023-02-08T17:32:56.294Z,7.30
2023-02-08T17:35:25.013Z,6.80
2023-02-08T17:37:55.630Z,7.05
2023-02-08T17:40:24.568Z,7.68
2023-02-08T17:42:54.400Z,7.97
2023-02-08T17:45:21.188Z,7.93
2023-02-08T17:47:47.863Z,7.50
2023-02-08T17:50:16.752Z,14.05
2023-02-08T17:52:43.393Z,6.32
2023-02-08T17:55:12.205Z,8.93
2023-02-08T17:57:40.545Z,8.43
2023-02-08T18:00:12.626Z,8.50
2023-02-08T18:02:46.953Z,6.88
2023-02-08T18:05:18.342Z,7.68
2023-02-08T18:07:45.030Z,7.88
2023-02-08T18:10:12.793Z,8.07
2023-02-08T18:12:39.796Z,9.67
2023-02-08T18:15:08.404Z,9.68
2023-02-08T18:17:35.754Z,7.32
2023-02-08T18:20:02.453Z,13.43
2023-02-08T18:22:29.826Z,10.45
2023-02-08T18:24:56.575Z,12.43
2023-02-08T18:27:24.873Z,10.38
2023-02-08T18:29:51.614Z,10.48
2023-02-08T18:32:20.172Z,10.45
2023-02-08T18:34:46.943Z,8.80
2023-02-08T18:37:14.098Z,13.33
2023-02-08T18:39:41.144Z,10.55
2023-02-08T18:42:07.933Z,11.70
2023-02-08T18:44:38.571Z,9.40
2023-02-08T18:47:06.351Z,13.80
2023-02-08T18:49:34.475Z,16.50
2023-02-08T18:52:01.096Z,10.00
2023-02-08T18:54:27.753Z,10.30
2023-02-08T18:56:55.720Z,9.13
2023-02-08T18:59:22.317Z,10.95
2023-02-08T19:01:48.955Z,8.70
2023-02-08T19:04:15.653Z,8.95
2023-02-08T19:06:42.325Z,10.00
2023-02-08T19:09:09.245Z,11.40
2023-02-08T19:11:38.393Z,7.97
2023-02-08T19:14:12.596Z,10.80
2023-02-08T19:16:39.633Z,9.80
2023-02-08T19:19:07.144Z,9.07
2023-02-08T19:21:34.821Z,12.10
2023-02-08T19:24:02.190Z,7.43
2023-02-08T19:26:36.399Z,8.83
2023-02-08T19:29:06.531Z,9.50
2023-02-08T19:31:33.924Z,9.55
2023-02-08T19:34:01.926Z,9.73
2023-02-08T19:36:35.609Z,9.25
2023-02-08T19:39:02.920Z,10.47
2023-02-08T19:41:33.301Z,9.15
2023-02-08T19:44:01.105Z,7.22
2023-02-08T19:46:27.986Z,11.68
2023-02-08T19:48:56.897Z,8.98
2023-02-08T19:51:23.592Z,7.30
2023-02-08T19:53:50.197Z,9.98
2023-02-08T19:56:18.232Z,9.50
2023-02-08T19:58:45.945Z,7.40
2023-02-08T20:01:16.356Z,8.48
2023-02-08T20:03:43.252Z,7.57
2023-02-08T20:06:15.205Z,10.65
2023-02-08T20:08:42.157Z,8.07
2023-02-08T20:11:17.503Z,11.25
2023-02-08T20:13:44.117Z,8.93
2023-02-08T20:16:10.815Z,9.67
2023-02-08T20:18:37.412Z,8.43
2023-02-08T20:21:04.557Z,8.98
2023-02-08T20:23:31.484Z,8.00
2023-02-08T20:26:21.133Z,8.45
2023-02-08T20:28:56.610Z,8.97
2023-02-08T20:31:26.130Z,7.53
2023-02-08T20:33:53.696Z,10.27
2023-02-08T20:36:25.725Z,8.68
2023-02-08T20:38:56.910Z,9.70
2023-02-08T20:41:26.261Z,10.23
2023-02-08T20:43:53.749Z,8.15
2023-02-08T20:46:24.568Z,11.00
2023-02-08T20:48:52.553Z,7.38
2023-02-08T20:51:21.661Z,6.63
2023-02-08T20:53:49.723Z,9.43
2023-02-08T20:56:22.296Z,9.93
2023-02-08T20:58:49.497Z,9.55
2023-02-08T21:01:18.492Z,7.68
2023-02-08T21:03:45.176Z,8.70
2023-02-08T21:06:21.548Z,9.67
2023-02-08T21:08:52.116Z,9.23
2023-02-08T21:11:20.782Z,9.88
2023-02-08T21:13:47.761Z,10.63
2023-02-08T21:16:15.465Z,12.35
2023-02-08T21:18:42.614Z,10.77
2023-02-08T21:21:10.356Z,9.43
2023-02-08T21:23:37.774Z,12.07
2023-02-08T21:26:06.424Z,8.90
2023-02-08T21:28:33.855Z,7.57
2023-02-08T21:31:02.853Z,11.53
2023-02-08T21:33:29.943Z,14.52
2023-02-08T21:35:56.896Z,9.48
2023-02-08T21:38:23.561Z,14.82
2023-02-08T21:40:50.139Z,8.07
2023-02-08T21:43:16.786Z,9.83
2023-02-08T21:45:43.482Z,12.23
2023-02-08T21:48:10.085Z,11.60
2023-02-08T21:50:57.262Z,8.95
2023-02-08T21:53:53.437Z,9.98
2023-02-08T21:56:20.320Z,9.87
2023-02-08T21:58:46.960Z,8.85
2023-02-08T22:01:13.707Z,10.52
2023-02-08T22:03:40.485Z,16.08
2023-02-08T22:06:07.198Z,10.87
2023-02-08T22:08:33.834Z,11.60
2023-02-08T22:11:04.648Z,9.48
2023-02-08T22:13:33.021Z,11.73
2023-02-08T22:16:00.626Z,8.38
2023-02-08T22:18:27.381Z,10.83
2023-02-08T22:20:54.523Z,9.23
2023-02-08T22:23:21.568Z,9.65
2023-02-08T22:25:48.183Z,9.10
2023-02-08T22:28:14.884Z,8.77
2023-02-08T22:30:41.593Z,10.85
2023-02-08T22:33:08.186Z,10.85
2023-02-08T22:35:34.809Z,10.55
2023-02-08T22:38:01.566Z,12.73
2023-02-08T22:40:28.183Z,12.13
2023-02-08T22:42:54.866Z,10.65
2023-02-08T22:45:21.476Z,14.70
2023-02-08T22:47:48.168Z,10.32
2023-02-08T22:50:14.953Z,13.20
2023-02-08T22:52:41.559Z,12.10
2023-02-08T22:55:08.416Z,10.60
2023-02-08T22:57:35.890Z,11.95
2023-02-08T23:00:03.812Z,9.77
2023-02-08T23:02:30.440Z,11.38
2023-02-08T23:04:57.161Z,11.43
2023-02-08T23:07:23.867Z,14.55
2023-02-08T23:09:50.472Z,9.38
2023-02-08T23:12:17.528Z,12.30
2023-02-08T23:14:44.159Z,11.27
2023-02-08T23:17:11.452Z,12.32
2023-02-08T23:19:38.163Z,12.35
2023-02-08T23:22:04.858Z,11.68
2023-02-08T23:24:31.517Z,14.23
2023-02-08T23:26:58.175Z,12.63
2023-02-08T23:29:25.045Z,11.80
2023-02-08T23:31:51.763Z,15.82
2023-02-08T23:34:18.674Z,10.38
2023-02-08T23:36:45.584Z,13.63
2023-02-08T23:39:12.354Z,9.07
2023-02-08T23:41:39.100Z,11.30
2023-02-08T23:44:06.021Z,12.95
2023-02-08T23:46:33.324Z,12.05
2023-02-08T23:48:59.997Z,13.02
2023-02-08T23:51:26.894Z,11.85
2023-02-08T23:53:55.185Z,12.82
2023-02-08T23:56:29.656Z,13.63
2023-02-08T23:58:58.467Z,15.98
